EWG1ER EDDN-EDDH
Flight info
| Callsign | EWG1ER |
|---|---|
| Flight time | 0h 51m |
| Altitude | 30000 |
| Route | ERETO1G ERETO DCT LONLI M726 LASTO M852 LARET/N0456F340 M852 HLZ Z990 DIRBO/N0419F230 T902 RARUP RARUP6A |
| Aircraft | A319/M-SDE3FGHIRWY/LB1 |
Departure
| Time | 2026-05-07 18:05 |
|---|---|
| Airport | Nuremberg Airport (EDDN) |
Arrival
| Time | 2026-05-07 18:57 |
|---|---|
| Airport | Hamburg Helmut Schmidt Airport (EDDH) |
| Time | Latitude | Longitude | Altitude | Speed | Heading |
|---|---|---|---|---|---|
| 2026-05-07 17:42 | 49.49538 | 11.07585 | 1050 ft | 0 kts | 188° |
| 2026-05-07 17:56 | 49.49547 | 11.07587 | 1050 ft | 2 kts | 190° |
| 2026-05-07 17:56 | 49.49562 | 11.07591 | 1050 ft | 2 kts | 188° |
| 2026-05-07 17:57 | 49.49573 | 11.07593 | 1050 ft | 0 kts | 188° |
| 2026-05-07 17:57 | 49.49581 | 11.07595 | 1050 ft | 2 kts | 174° |
| 2026-05-07 17:57 | 49.49599 | 11.07583 | 1050 ft | 2 kts | 133° |
| 2026-05-07 17:57 | 49.49607 | 11.07563 | 1050 ft | 1 kts | 104° |
| 2026-05-07 17:58 | 49.49607 | 11.07554 | 1050 ft | 1 kts | 96° |
| 2026-05-07 17:58 | 49.49608 | 11.07550 | 1050 ft | 0 kts | 97° |
| 2026-05-07 18:00 | 49.49606 | 11.07568 | 1050 ft | 5 kts | 97° |
| 2026-05-07 18:00 | 49.49596 | 11.07676 | 1050 ft | 12 kts | 98° |
| 2026-05-07 18:00 | 49.49583 | 11.07807 | 1050 ft | 12 kts | 99° |
| 2026-05-07 18:01 | 49.49569 | 11.07943 | 1050 ft | 13 kts | 98° |
| 2026-05-07 18:01 | 49.49555 | 11.08084 | 1050 ft | 13 kts | 98° |
| 2026-05-07 18:01 | 49.49542 | 11.08217 | 1050 ft | 8 kts | 98° |
| 2026-05-07 18:01 | 49.49534 | 11.08313 | 1050 ft | 9 kts | 85° |
| 2026-05-07 18:02 | 49.49615 | 11.08445 | 1050 ft | 10 kts | 94° |
| 2026-05-07 18:02 | 49.49605 | 11.08558 | 1050 ft | 11 kts | 99° |
| 2026-05-07 18:02 | 49.49587 | 11.08729 | 1050 ft | 19 kts | 99° |
| 2026-05-07 18:03 | 49.49567 | 11.08929 | 1050 ft | 18 kts | 98° |
| 2026-05-07 18:03 | 49.49548 | 11.09126 | 1050 ft | 18 kts | 98° |
| 2026-05-07 18:03 | 49.49531 | 11.09316 | 1050 ft | 17 kts | 87° |
| 2026-05-07 18:03 | 49.49589 | 11.09477 | 1050 ft | 17 kts | 54° |
| 2026-05-07 18:04 | 49.49672 | 11.09576 | 1050 ft | 13 kts | 10° |
| 2026-05-07 18:04 | 49.49702 | 11.09495 | 1050 ft | 15 kts | 279° |
| 2026-05-07 18:04 | 49.49756 | 11.08952 | 1051 ft | 86 kts | 278° |
| 2026-05-07 18:04 | 49.49877 | 11.07702 | 1052 ft | 146 kts | 278° |
| 2026-05-07 18:05 | 49.50030 | 11.06152 | 1618 ft | 145 kts | 278° |
| 2026-05-07 18:05 | 49.50181 | 11.04625 | 1975 ft | 142 kts | 278° |
| 2026-05-07 18:05 | 49.50334 | 11.03066 | 2215 ft | 158 kts | 279° |
| 2026-05-07 18:05 | 49.50515 | 11.01240 | 2473 ft | 187 kts | 279° |
| 2026-05-07 18:06 | 49.50728 | 10.99086 | 2635 ft | 220 kts | 279° |
| 2026-05-07 18:06 | 49.50986 | 10.96604 | 2844 ft | 248 kts | 284° |
| 2026-05-07 18:06 | 49.51738 | 10.94235 | 3034 ft | 252 kts | 313° |
| 2026-05-07 18:06 | 49.53201 | 10.92765 | 3581 ft | 261 kts | 343° |
| 2026-05-07 18:07 | 49.54972 | 10.92483 | 4652 ft | 259 kts | 360° |
| 2026-05-07 18:07 | 49.56765 | 10.92542 | 5544 ft | 264 kts | 360° |
| 2026-05-07 18:07 | 49.58625 | 10.92611 | 6394 ft | 270 kts | 1° |
| 2026-05-07 18:07 | 49.60454 | 10.93125 | 7238 ft | 276 kts | 17° |
| 2026-05-07 18:08 | 49.62251 | 10.94252 | 8149 ft | 279 kts | 21° |
| 2026-05-07 18:08 | 49.64020 | 10.95467 | 8977 ft | 283 kts | 21° |
| 2026-05-07 18:08 | 49.65830 | 10.96682 | 9768 ft | 287 kts | 20° |
| 2026-05-07 18:08 | 49.67672 | 10.97877 | 10507 ft | 291 kts | 19° |
| 2026-05-07 18:09 | 49.69595 | 10.99090 | 10927 ft | 307 kts | 19° |
| 2026-05-07 18:09 | 49.71625 | 11.00352 | 11252 ft | 325 kts | 19° |
| 2026-05-07 18:09 | 49.73774 | 11.01679 | 11572 ft | 342 kts | 19° |
| 2026-05-07 18:09 | 49.76013 | 11.03059 | 11990 ft | 353 kts | 19° |
| 2026-05-07 18:10 | 49.78323 | 11.04487 | 12493 ft | 358 kts | 19° |
| 2026-05-07 18:10 | 49.80632 | 11.05913 | 13003 ft | 360 kts | 19° |
| 2026-05-07 18:10 | 49.82947 | 11.07343 | 13513 ft | 363 kts | 19° |
| 2026-05-07 18:10 | 49.85310 | 11.08804 | 14041 ft | 365 kts | 19° |
| 2026-05-07 18:11 | 49.87671 | 11.10264 | 14669 ft | 368 kts | 19° |
| 2026-05-07 18:11 | 49.89265 | 11.11250 | 15087 ft | 370 kts | 19° |
| 2026-05-07 18:11 | 49.92471 | 11.13239 | 15932 ft | 374 kts | 19° |
| 2026-05-07 18:11 | 49.94884 | 11.14737 | 16579 ft | 377 kts | 19° |
| 2026-05-07 18:12 | 49.97320 | 11.16248 | 17214 ft | 378 kts | 20° |
| 2026-05-07 18:12 | 49.99744 | 11.17756 | 17846 ft | 379 kts | 19° |
| 2026-05-07 18:12 | 50.02209 | 11.19288 | 18496 ft | 380 kts | 20° |
| 2026-05-07 18:12 | 50.04662 | 11.20795 | 19137 ft | 381 kts | 18° |
| 2026-05-07 18:13 | 50.07202 | 11.21951 | 19786 ft | 380 kts | 11° |
| 2026-05-07 18:13 | 50.09780 | 11.22555 | 20420 ft | 378 kts | 3° |
| 2026-05-07 18:13 | 50.12416 | 11.22699 | 21075 ft | 377 kts | 359° |
| 2026-05-07 18:13 | 50.15031 | 11.22715 | 21456 ft | 384 kts | 359° |
| 2026-05-07 18:14 | 50.17750 | 11.22711 | 21654 ft | 395 kts | 359° |
| 2026-05-07 18:14 | 50.20534 | 11.22712 | 21900 ft | 404 kts | 359° |
| 2026-05-07 18:14 | 50.23380 | 11.22720 | 22310 ft | 408 kts | 359° |
| 2026-05-07 18:14 | 50.26231 | 11.22735 | 22787 ft | 411 kts | 359° |
| 2026-05-07 18:15 | 50.29089 | 11.22751 | 23244 ft | 413 kts | 359° |
| 2026-05-07 18:15 | 50.31952 | 11.22768 | 23694 ft | 415 kts | 359° |
| 2026-05-07 18:15 | 50.34851 | 11.22754 | 24142 ft | 417 kts | 358° |
| 2026-05-07 18:15 | 50.37777 | 11.22520 | 24571 ft | 419 kts | 354° |
| 2026-05-07 18:16 | 50.40662 | 11.22122 | 24980 ft | 422 kts | 353° |
| 2026-05-07 18:16 | 50.43612 | 11.21676 | 25376 ft | 424 kts | 353° |
| 2026-05-07 18:16 | 50.46552 | 11.21223 | 25749 ft | 427 kts | 353° |
| 2026-05-07 18:16 | 50.49537 | 11.20767 | 26139 ft | 430 kts | 353° |
| 2026-05-07 18:17 | 50.52495 | 11.20317 | 26525 ft | 433 kts | 353° |
| 2026-05-07 18:17 | 50.55494 | 11.19797 | 26893 ft | 435 kts | 352° |
| 2026-05-07 18:17 | 50.58519 | 11.19149 | 27258 ft | 437 kts | 351° |
| 2026-05-07 18:17 | 50.61527 | 11.18478 | 27611 ft | 440 kts | 351° |
| 2026-05-07 18:18 | 50.64543 | 11.17808 | 27967 ft | 442 kts | 351° |
| 2026-05-07 18:18 | 50.67583 | 11.17139 | 28320 ft | 444 kts | 351° |
| 2026-05-07 18:18 | 50.70675 | 11.16464 | 28753 ft | 443 kts | 351° |
| 2026-05-07 18:18 | 50.73712 | 11.15805 | 29231 ft | 442 kts | 351° |
| 2026-05-07 18:19 | 50.76737 | 11.15149 | 29689 ft | 441 kts | 351° |
| 2026-05-07 18:19 | 50.79755 | 11.14496 | 30017 ft | 440 kts | 351° |
| 2026-05-07 18:19 | 50.82826 | 11.13831 | 30049 ft | 440 kts | 351° |
| 2026-05-07 18:20 | 50.88891 | 11.12518 | 30065 ft | 440 kts | 351° |
| 2026-05-07 18:20 | 50.94949 | 11.11205 | 30073 ft | 441 kts | 351° |
| 2026-05-07 18:21 | 51.01014 | 11.09885 | 30078 ft | 441 kts | 351° |
| 2026-05-07 18:21 | 51.07088 | 11.08559 | 30081 ft | 441 kts | 351° |
| 2026-05-07 18:22 | 51.13178 | 11.07230 | 30079 ft | 441 kts | 351° |
| 2026-05-07 18:22 | 51.19264 | 11.05902 | 30079 ft | 441 kts | 351° |
| 2026-05-07 18:23 | 51.25318 | 11.04572 | 30078 ft | 442 kts | 351° |
| 2026-05-07 18:23 | 51.31402 | 11.03232 | 30076 ft | 442 kts | 351° |
| 2026-05-07 18:24 | 51.37494 | 11.01889 | 30075 ft | 443 kts | 351° |
| 2026-05-07 18:24 | 51.43570 | 11.00542 | 30074 ft | 443 kts | 351° |
| 2026-05-07 18:25 | 51.49672 | 10.99186 | 30072 ft | 443 kts | 351° |
| 2026-05-07 18:25 | 51.55774 | 10.97826 | 30070 ft | 442 kts | 351° |
| 2026-05-07 18:26 | 51.61835 | 10.96471 | 30069 ft | 443 kts | 351° |
| 2026-05-07 18:26 | 51.67958 | 10.95100 | 30067 ft | 444 kts | 351° |
| 2026-05-07 18:27 | 51.74062 | 10.93728 | 30065 ft | 444 kts | 351° |
| 2026-05-07 18:27 | 51.80162 | 10.92353 | 30067 ft | 444 kts | 351° |
| 2026-05-07 18:28 | 51.86263 | 10.90978 | 30073 ft | 443 kts | 351° |
| 2026-05-07 18:28 | 51.92334 | 10.89603 | 30089 ft | 443 kts | 351° |
| 2026-05-07 18:29 | 51.98477 | 10.88208 | 30090 ft | 444 kts | 351° |
| 2026-05-07 18:29 | 52.04584 | 10.86817 | 30081 ft | 444 kts | 351° |
| 2026-05-07 18:30 | 52.10640 | 10.85430 | 30068 ft | 442 kts | 351° |
| 2026-05-07 18:30 | 52.13672 | 10.84739 | 29726 ft | 437 kts | 351° |
| 2026-05-07 18:30 | 52.16667 | 10.84057 | 28839 ft | 441 kts | 351° |
| 2026-05-07 18:30 | 52.19756 | 10.83351 | 27779 ft | 446 kts | 351° |
| 2026-05-07 18:31 | 52.22770 | 10.82660 | 27159 ft | 441 kts | 351° |
| 2026-05-07 18:31 | 52.25776 | 10.81968 | 26955 ft | 428 kts | 351° |
| 2026-05-07 18:31 | 52.28684 | 10.81298 | 26732 ft | 416 kts | 351° |
| 2026-05-07 18:31 | 52.31485 | 10.80652 | 26444 ft | 406 kts | 351° |
| 2026-05-07 18:32 | 52.34301 | 10.80094 | 25951 ft | 402 kts | 354° |
| 2026-05-07 18:32 | 52.37079 | 10.79837 | 25402 ft | 400 kts | 358° |
| 2026-05-07 18:32 | 52.39829 | 10.79892 | 25123 ft | 397 kts | 1° |
| 2026-05-07 18:32 | 52.42568 | 10.80140 | 25100 ft | 398 kts | 2° |
| 2026-05-07 18:33 | 52.45336 | 10.80429 | 25098 ft | 399 kts | 2° |
| 2026-05-07 18:33 | 52.48098 | 10.80724 | 25096 ft | 399 kts | 2° |
| 2026-05-07 18:33 | 52.50875 | 10.81018 | 25094 ft | 400 kts | 2° |
| 2026-05-07 18:33 | 52.53645 | 10.81311 | 25093 ft | 400 kts | 2° |
| 2026-05-07 18:34 | 52.56442 | 10.81606 | 25093 ft | 400 kts | 2° |
| 2026-05-07 18:34 | 52.59206 | 10.81838 | 24960 ft | 395 kts | 359° |
| 2026-05-07 18:34 | 52.61907 | 10.81613 | 24443 ft | 392 kts | 354° |
| 2026-05-07 18:34 | 52.64623 | 10.81203 | 23827 ft | 392 kts | 353° |
| 2026-05-07 18:35 | 52.67334 | 10.80779 | 23294 ft | 389 kts | 353° |
| 2026-05-07 18:35 | 52.70001 | 10.80379 | 22816 ft | 386 kts | 354° |
| 2026-05-07 18:35 | 52.72666 | 10.79999 | 22341 ft | 383 kts | 354° |
| 2026-05-07 18:35 | 52.75300 | 10.79635 | 21864 ft | 380 kts | 354° |
| 2026-05-07 18:36 | 52.77936 | 10.79279 | 21391 ft | 377 kts | 354° |
| 2026-05-07 18:36 | 52.80533 | 10.78933 | 20907 ft | 375 kts | 354° |
| 2026-05-07 18:36 | 52.83141 | 10.78588 | 20204 ft | 379 kts | 355° |
| 2026-05-07 18:36 | 52.85789 | 10.78238 | 19506 ft | 383 kts | 355° |
| 2026-05-07 18:37 | 52.88452 | 10.77886 | 18811 ft | 386 kts | 355° |
| 2026-05-07 18:37 | 52.91107 | 10.77536 | 18112 ft | 382 kts | 355° |
| 2026-05-07 18:37 | 52.93691 | 10.77197 | 17436 ft | 368 kts | 355° |
| 2026-05-07 18:37 | 52.96189 | 10.76869 | 16768 ft | 359 kts | 355° |
| 2026-05-07 18:38 | 52.98659 | 10.76544 | 16091 ft | 357 kts | 355° |
| 2026-05-07 18:38 | 53.01086 | 10.76224 | 15438 ft | 345 kts | 355° |
| 2026-05-07 18:38 | 53.03444 | 10.75912 | 14779 ft | 334 kts | 355° |
| 2026-05-07 18:38 | 53.05700 | 10.75613 | 14128 ft | 324 kts | 355° |
| 2026-05-07 18:39 | 53.07928 | 10.75318 | 13469 ft | 316 kts | 356° |
| 2026-05-07 18:39 | 53.10047 | 10.75037 | 12826 ft | 308 kts | 356° |
| 2026-05-07 18:39 | 53.12179 | 10.74687 | 12156 ft | 302 kts | 348° |
| 2026-05-07 18:39 | 53.14032 | 10.73236 | 11517 ft | 296 kts | 318° |
| 2026-05-07 18:40 | 53.15317 | 10.70619 | 11186 ft | 290 kts | 307° |
| 2026-05-07 18:40 | 53.16495 | 10.67891 | 11096 ft | 291 kts | 307° |
| 2026-05-07 18:40 | 53.17685 | 10.65202 | 11092 ft | 292 kts | 308° |
| 2026-05-07 18:40 | 53.18900 | 10.62507 | 11092 ft | 292 kts | 308° |
| 2026-05-07 18:41 | 53.20145 | 10.59786 | 10977 ft | 293 kts | 309° |
| 2026-05-07 18:41 | 53.21362 | 10.57143 | 10726 ft | 291 kts | 309° |
| 2026-05-07 18:41 | 53.22601 | 10.54464 | 10465 ft | 290 kts | 309° |
| 2026-05-07 18:41 | 53.23818 | 10.51836 | 10219 ft | 289 kts | 309° |
| 2026-05-07 18:42 | 53.25065 | 10.49147 | 10109 ft | 287 kts | 309° |
| 2026-05-07 18:42 | 53.26280 | 10.46527 | 10100 ft | 288 kts | 309° |
| 2026-05-07 18:42 | 53.27498 | 10.43897 | 10102 ft | 288 kts | 309° |
| 2026-05-07 18:42 | 53.28731 | 10.41235 | 9980 ft | 287 kts | 309° |
| 2026-05-07 18:43 | 53.29947 | 10.38604 | 9785 ft | 288 kts | 309° |
| 2026-05-07 18:43 | 53.31141 | 10.36019 | 9422 ft | 289 kts | 309° |
| 2026-05-07 18:43 | 53.32365 | 10.33362 | 9040 ft | 290 kts | 308° |
| 2026-05-07 18:43 | 53.33572 | 10.30724 | 8651 ft | 283 kts | 308° |
| 2026-05-07 18:44 | 53.34759 | 10.28135 | 8283 ft | 282 kts | 309° |
| 2026-05-07 18:44 | 53.35954 | 10.25531 | 7902 ft | 282 kts | 309° |
| 2026-05-07 18:44 | 53.37156 | 10.22912 | 7521 ft | 283 kts | 309° |
| 2026-05-07 18:44 | 53.38347 | 10.20316 | 7146 ft | 283 kts | 309° |
| 2026-05-07 18:45 | 53.39553 | 10.17688 | 6761 ft | 285 kts | 309° |
| 2026-05-07 18:45 | 53.40751 | 10.15071 | 6375 ft | 281 kts | 309° |
| 2026-05-07 18:45 | 53.41899 | 10.12559 | 6106 ft | 266 kts | 309° |
| 2026-05-07 18:45 | 53.42995 | 10.10156 | 5812 ft | 251 kts | 309° |
| 2026-05-07 18:46 | 53.44023 | 10.07903 | 5534 ft | 241 kts | 310° |
| 2026-05-07 18:46 | 53.44965 | 10.05558 | 5279 ft | 243 kts | 294° |
| 2026-05-07 18:46 | 53.45200 | 10.02788 | 5110 ft | 243 kts | 262° |
| 2026-05-07 18:46 | 53.44778 | 10.00036 | 5111 ft | 246 kts | 251° |
| 2026-05-07 18:47 | 53.44200 | 9.97301 | 5137 ft | 247 kts | 249° |
| 2026-05-07 18:47 | 53.43602 | 9.94599 | 5113 ft | 247 kts | 249° |
| 2026-05-07 18:47 | 53.43001 | 9.91898 | 5097 ft | 247 kts | 249° |
| 2026-05-07 18:47 | 53.42399 | 9.89204 | 5106 ft | 247 kts | 249° |
| 2026-05-07 18:48 | 53.41798 | 9.86518 | 5121 ft | 247 kts | 249° |
| 2026-05-07 18:48 | 53.41191 | 9.83815 | 5128 ft | 247 kts | 249° |
| 2026-05-07 18:48 | 53.40584 | 9.81122 | 5001 ft | 250 kts | 249° |
| 2026-05-07 18:48 | 53.39965 | 9.78376 | 4564 ft | 256 kts | 249° |
| 2026-05-07 18:49 | 53.39328 | 9.75534 | 4132 ft | 263 kts | 249° |
| 2026-05-07 18:49 | 53.38749 | 9.72657 | 3709 ft | 262 kts | 261° |
| 2026-05-07 18:49 | 53.38835 | 9.69705 | 3262 ft | 255 kts | 291° |
| 2026-05-07 18:49 | 53.39761 | 9.67339 | 3000 ft | 234 kts | 326° |
| 2026-05-07 18:50 | 53.41140 | 9.66326 | 2976 ft | 206 kts | 1° |
| 2026-05-07 18:50 | 53.42509 | 9.66642 | 3010 ft | 199 kts | 20° |
| 2026-05-07 18:50 | 53.43799 | 9.67357 | 3093 ft | 192 kts | 24° |
| 2026-05-07 18:50 | 53.45047 | 9.68122 | 3012 ft | 183 kts | 24° |
| 2026-05-07 18:51 | 53.46199 | 9.68828 | 2983 ft | 170 kts | 24° |
| 2026-05-07 18:51 | 53.47308 | 9.69503 | 2979 ft | 169 kts | 24° |
| 2026-05-07 18:51 | 53.48412 | 9.70396 | 2991 ft | 190 kts | 36° |
| 2026-05-07 18:51 | 53.49467 | 9.71800 | 3003 ft | 195 kts | 46° |
| 2026-05-07 18:52 | 53.50405 | 9.73398 | 2992 ft | 188 kts | 49° |
| 2026-05-07 18:52 | 53.51260 | 9.74969 | 2983 ft | 173 kts | 51° |
| 2026-05-07 18:52 | 53.52009 | 9.76424 | 2987 ft | 158 kts | 52° |
| 2026-05-07 18:52 | 53.52707 | 9.77823 | 2870 ft | 154 kts | 53° |
| 2026-05-07 18:53 | 53.53385 | 9.79201 | 2686 ft | 153 kts | 53° |
| 2026-05-07 18:53 | 53.54065 | 9.80589 | 2490 ft | 151 kts | 53° |
| 2026-05-07 18:53 | 53.54739 | 9.81965 | 2303 ft | 151 kts | 53° |
| 2026-05-07 18:53 | 53.55403 | 9.83320 | 2098 ft | 151 kts | 53° |
| 2026-05-07 18:54 | 53.56063 | 9.84664 | 1897 ft | 150 kts | 53° |
| 2026-05-07 18:54 | 53.56727 | 9.86015 | 1684 ft | 144 kts | 53° |
| 2026-05-07 18:54 | 53.57342 | 9.87262 | 1478 ft | 135 kts | 53° |
| 2026-05-07 18:54 | 53.57917 | 9.88431 | 1290 ft | 127 kts | 53° |
| 2026-05-07 18:55 | 53.58484 | 9.89583 | 1139 ft | 128 kts | 53° |
| 2026-05-07 18:55 | 53.59050 | 9.90735 | 974 ft | 128 kts | 52° |
| 2026-05-07 18:55 | 53.59620 | 9.91898 | 803 ft | 129 kts | 51° |
| 2026-05-07 18:55 | 53.60200 | 9.93069 | 634 ft | 132 kts | 51° |
| 2026-05-07 18:56 | 53.60795 | 9.94274 | 479 ft | 137 kts | 51° |
| 2026-05-07 18:56 | 53.61394 | 9.95491 | 272 ft | 131 kts | 51° |
| 2026-05-07 18:56 | 53.61975 | 9.96678 | 105 ft | 133 kts | 49° |
| 2026-05-07 18:56 | 53.62541 | 9.97818 | 62 ft | 106 kts | 51° |
| 2026-05-07 18:57 | 53.62755 | 9.98270 | 61 ft | 17 kts | 78° |
| 2026-05-07 18:57 | 53.62721 | 9.98387 | 61 ft | 6 kts | 137° |
| 2026-05-07 18:57 | 53.62678 | 9.98457 | 61 ft | 10 kts | 123° |
| 2026-05-07 18:57 | 53.62699 | 9.98570 | 61 ft | 12 kts | 51° |
| 2026-05-07 18:58 | 53.62767 | 9.98706 | 61 ft | 15 kts | 49° |
| 2026-05-07 18:58 | 53.62839 | 9.98857 | 61 ft | 16 kts | 51° |
| 2026-05-07 18:58 | 53.62905 | 9.98988 | 61 ft | 12 kts | 51° |
| 2026-05-07 18:58 | 53.62964 | 9.99107 | 61 ft | 13 kts | 50° |
| 2026-05-07 18:59 | 53.63027 | 9.99235 | 61 ft | 14 kts | 51° |
| 2026-05-07 18:59 | 53.63087 | 9.99371 | 61 ft | 13 kts | 55° |
| 2026-05-07 18:59 | 53.63143 | 9.99507 | 61 ft | 15 kts | 54° |
| 2026-05-07 18:59 | 53.63208 | 9.99644 | 61 ft | 8 kts | 50° |
| 2026-05-07 19:00 | 53.63223 | 9.99675 | 61 ft | 2 kts | 53° |
| 2026-05-07 19:00 | 53.63234 | 9.99704 | 61 ft | 3 kts | 58° |
| 2026-05-07 19:00 | 53.63239 | 9.99730 | 61 ft | 2 kts | 99° |
| 2026-05-07 19:00 | 53.63223 | 9.99760 | 61 ft | 4 kts | 153° |
| 2026-05-07 19:01 | 53.63179 | 9.99796 | 61 ft | 12 kts | 152° |
| 2026-05-07 19:01 | 53.63123 | 9.99856 | 61 ft | 5 kts | 128° |
| 2026-05-07 19:01 | 53.63125 | 9.99919 | 61 ft | 6 kts | 59° |
| 2026-05-07 19:01 | 53.63155 | 9.99984 | 61 ft | 8 kts | 51° |
| 2026-05-07 19:02 | 53.63189 | 10.00053 | 61 ft | 8 kts | 49° |
| 2026-05-07 19:02 | 53.63215 | 10.00104 | 61 ft | 0 kts | 49° |
| 2026-05-07 19:02 | 53.63218 | 10.00110 | 61 ft | 0 kts | 49° |
| 2026-05-07 19:02 | 53.63220 | 10.00113 | 61 ft | 0 kts | 49° |
| 2026-05-07 19:03 | 53.63220 | 10.00114 | 61 ft | 0 kts | 49° |
| 2026-05-07 19:04 | 53.63221 | 10.00116 | 61 ft | 1 kts | 49° |
| 2026-05-07 19:04 | 53.63234 | 10.00142 | 61 ft | 4 kts | 50° |
| 2026-05-07 19:05 | 53.63246 | 10.00202 | 61 ft | 6 kts | 91° |
| 2026-05-07 19:05 | 53.63244 | 10.00267 | 61 ft | 5 kts | 79° |
| 2026-05-07 19:05 | 53.63245 | 10.00327 | 61 ft | 4 kts | 93° |
| 2026-05-07 19:05 | 53.63247 | 10.00369 | 61 ft | 0 kts | 85° |